DLH1822 EDDM-LEZL
Flight info
| Callsign | DLH1822 |
|---|---|
| Flight time | 2h 39m |
| Altitude | 37000 |
| Route | TURBU Y107 TOBSO DCT BAKOR DCT GEKBA DCT VAMTU DCT KOLON DCT GANGU DCT PADKO DCT DIVKO DCT NILDU DCT NENDA N975 GOTOR N857 HIJ |
| Aircraft | A320/M-SDE2E3FGIJ1LORWXYZ/HB1 |
Departure
| Time | 2026-03-27 12:10 |
|---|---|
| Airport | Munich Airport (EDDM) |
Arrival
| Time | 2026-03-27 14:49 |
|---|---|
| Airport | Seville Airport (LEZL) |
| Time | Latitude | Longitude | Altitude | Speed | Heading |
|---|---|---|---|---|---|
| 2026-03-27 11:54 | 48.35739 | 11.79255 | 1478 ft | 0 kts | 263° |
| 2026-03-27 12:01 | 48.35740 | 11.79263 | 1471 ft | 2 kts | 263° |
| 2026-03-27 12:01 | 48.35742 | 11.79293 | 1478 ft | 3 kts | 263° |
| 2026-03-27 12:02 | 48.35744 | 11.79323 | 1471 ft | 3 kts | 263° |
| 2026-03-27 12:02 | 48.35747 | 11.79352 | 1472 ft | 3 kts | 257° |
| 2026-03-27 12:02 | 48.35753 | 11.79380 | 1481 ft | 3 kts | 231° |
| 2026-03-27 12:02 | 48.35766 | 11.79397 | 1475 ft | 3 kts | 189° |
| 2026-03-27 12:03 | 48.35777 | 11.79398 | 1482 ft | 2 kts | 173° |
| 2026-03-27 12:03 | 48.35792 | 11.79395 | 1477 ft | 1 kts | 173° |
| 2026-03-27 12:03 | 48.35793 | 11.79395 | 1477 ft | 0 kts | 173° |
| 2026-03-27 12:05 | 48.35782 | 11.79397 | 1481 ft | 6 kts | 173° |
| 2026-03-27 12:05 | 48.35695 | 11.79413 | 1482 ft | 19 kts | 173° |
| 2026-03-27 12:05 | 48.35561 | 11.79436 | 1475 ft | 18 kts | 173° |
| 2026-03-27 12:05 | 48.35440 | 11.79457 | 1477 ft | 17 kts | 173° |
| 2026-03-27 12:06 | 48.35331 | 11.79476 | 1481 ft | 15 kts | 173° |
| 2026-03-27 12:06 | 48.35234 | 11.79493 | 1481 ft | 13 kts | 173° |
| 2026-03-27 12:06 | 48.35147 | 11.79508 | 1485 ft | 13 kts | 173° |
| 2026-03-27 12:06 | 48.35041 | 11.79526 | 1485 ft | 17 kts | 173° |
| 2026-03-27 12:07 | 48.34926 | 11.79546 | 1485 ft | 16 kts | 173° |
| 2026-03-27 12:07 | 48.34823 | 11.79558 | 1481 ft | 14 kts | 181° |
| 2026-03-27 12:07 | 48.34731 | 11.79552 | 1478 ft | 12 kts | 176° |
| 2026-03-27 12:07 | 48.34650 | 11.79555 | 1485 ft | 11 kts | 193° |
| 2026-03-27 12:08 | 48.34598 | 11.79487 | 1471 ft | 9 kts | 234° |
| 2026-03-27 12:08 | 48.34563 | 11.79414 | 1479 ft | 8 kts | 232° |
| 2026-03-27 12:08 | 48.34515 | 11.79323 | 1476 ft | 15 kts | 233° |
| 2026-03-27 12:08 | 48.34457 | 11.79207 | 1483 ft | 13 kts | 233° |
| 2026-03-27 12:09 | 48.34398 | 11.79120 | 1478 ft | 11 kts | 216° |
| 2026-03-27 12:09 | 48.34370 | 11.79024 | 1481 ft | 11 kts | 262° |
| 2026-03-27 12:09 | 48.34344 | 11.78690 | 1485 ft | 68 kts | 264° |
| 2026-03-27 12:09 | 48.34264 | 11.77641 | 1475 ft | 131 kts | 263° |
| 2026-03-27 12:10 | 48.34156 | 11.76056 | 1676 ft | 162 kts | 266° |
| 2026-03-27 12:10 | 48.34028 | 11.74381 | 2510 ft | 160 kts | 266° |
| 2026-03-27 12:10 | 48.33870 | 11.72675 | 3135 ft | 175 kts | 257° |
| 2026-03-27 12:10 | 48.33075 | 11.71163 | 3458 ft | 204 kts | 208° |
| 2026-03-27 12:11 | 48.31629 | 11.70692 | 3825 ft | 222 kts | 184° |
| 2026-03-27 12:11 | 48.30057 | 11.70622 | 4413 ft | 229 kts | 178° |
| 2026-03-27 12:11 | 48.29012 | 11.70848 | 4834 ft | 232 kts | 162° |
| 2026-03-27 12:11 | 48.27532 | 11.71940 | 5480 ft | 243 kts | 143° |
| 2026-03-27 12:12 | 48.26104 | 11.73448 | 5894 ft | 266 kts | 143° |
| 2026-03-27 12:12 | 48.24557 | 11.75051 | 6681 ft | 273 kts | 144° |
| 2026-03-27 12:12 | 48.22973 | 11.76669 | 7564 ft | 277 kts | 143° |
| 2026-03-27 12:12 | 48.21372 | 11.78295 | 8488 ft | 279 kts | 143° |
| 2026-03-27 12:13 | 48.19758 | 11.79927 | 9443 ft | 281 kts | 143° |
| 2026-03-27 12:13 | 48.18100 | 11.81493 | 10349 ft | 284 kts | 151° |
| 2026-03-27 12:13 | 48.16213 | 11.82620 | 10816 ft | 304 kts | 159° |
| 2026-03-27 12:13 | 48.14142 | 11.83663 | 11202 ft | 322 kts | 160° |
| 2026-03-27 12:14 | 48.11994 | 11.84718 | 11910 ft | 328 kts | 160° |
| 2026-03-27 12:14 | 48.09814 | 11.85781 | 12712 ft | 331 kts | 160° |
| 2026-03-27 12:14 | 48.07617 | 11.86853 | 13528 ft | 333 kts | 160° |
| 2026-03-27 12:14 | 48.05407 | 11.87936 | 14313 ft | 335 kts | 161° |
| 2026-03-27 12:15 | 48.03177 | 11.89034 | 14994 ft | 338 kts | 160° |
| 2026-03-27 12:15 | 48.00925 | 11.90151 | 15564 ft | 344 kts | 161° |
| 2026-03-27 12:15 | 47.98632 | 11.91292 | 16151 ft | 350 kts | 161° |
| 2026-03-27 12:15 | 47.96309 | 11.92446 | 16777 ft | 354 kts | 161° |
| 2026-03-27 12:16 | 47.93953 | 11.93611 | 17408 ft | 359 kts | 161° |
| 2026-03-27 12:16 | 47.91521 | 11.94558 | 17991 ft | 365 kts | 170° |
| 2026-03-27 12:16 | 47.88972 | 11.94839 | 18573 ft | 370 kts | 180° |
| 2026-03-27 12:16 | 47.86378 | 11.94783 | 19087 ft | 375 kts | 180° |
| 2026-03-27 12:17 | 47.83764 | 11.94728 | 19652 ft | 377 kts | 180° |
| 2026-03-27 12:17 | 47.81126 | 11.94673 | 20203 ft | 381 kts | 180° |
| 2026-03-27 12:17 | 47.78466 | 11.94621 | 20773 ft | 383 kts | 180° |
| 2026-03-27 12:17 | 47.75792 | 11.94572 | 21335 ft | 386 kts | 180° |
| 2026-03-27 12:18 | 47.73103 | 11.94523 | 21909 ft | 387 kts | 180° |
| 2026-03-27 12:18 | 47.70403 | 11.94476 | 22448 ft | 389 kts | 180° |
| 2026-03-27 12:18 | 47.67684 | 11.94431 | 22981 ft | 392 kts | 180° |
| 2026-03-27 12:18 | 47.64944 | 11.94387 | 23512 ft | 395 kts | 180° |
| 2026-03-27 12:19 | 47.62189 | 11.94343 | 23980 ft | 397 kts | 180° |
| 2026-03-27 12:19 | 47.59413 | 11.94296 | 24405 ft | 400 kts | 180° |
| 2026-03-27 12:19 | 47.56614 | 11.94245 | 24769 ft | 404 kts | 180° |
| 2026-03-27 12:19 | 47.53788 | 11.94193 | 25159 ft | 407 kts | 180° |
| 2026-03-27 12:20 | 47.50942 | 11.94143 | 25529 ft | 411 kts | 180° |
| 2026-03-27 12:20 | 47.48074 | 11.94093 | 25903 ft | 414 kts | 180° |
| 2026-03-27 12:20 | 47.45188 | 11.94042 | 26283 ft | 417 kts | 180° |
| 2026-03-27 12:20 | 47.42281 | 11.93847 | 26650 ft | 420 kts | 186° |
| 2026-03-27 12:21 | 47.39374 | 11.93272 | 27009 ft | 423 kts | 187° |
| 2026-03-27 12:21 | 47.36444 | 11.92681 | 27351 ft | 427 kts | 186° |
| 2026-03-27 12:21 | 47.33477 | 11.92084 | 27643 ft | 432 kts | 186° |
| 2026-03-27 12:21 | 47.30485 | 11.91480 | 27949 ft | 436 kts | 186° |
| 2026-03-27 12:22 | 47.27472 | 11.90874 | 28318 ft | 438 kts | 186° |
| 2026-03-27 12:22 | 47.24444 | 11.90271 | 28665 ft | 440 kts | 186° |
| 2026-03-27 12:22 | 47.21398 | 11.89674 | 28998 ft | 443 kts | 186° |
| 2026-03-27 12:22 | 47.18328 | 11.89075 | 29330 ft | 446 kts | 186° |
| 2026-03-27 12:23 | 47.15239 | 11.88465 | 29622 ft | 450 kts | 186° |
| 2026-03-27 12:23 | 47.12129 | 11.87842 | 29964 ft | 453 kts | 186° |
| 2026-03-27 12:23 | 47.09006 | 11.87220 | 30305 ft | 454 kts | 186° |
| 2026-03-27 12:23 | 47.05862 | 11.86597 | 30526 ft | 457 kts | 186° |
| 2026-03-27 12:24 | 47.02693 | 11.85968 | 30723 ft | 462 kts | 186° |
| 2026-03-27 12:24 | 46.99512 | 11.85249 | 30941 ft | 464 kts | 188° |
| 2026-03-27 12:24 | 46.96329 | 11.84344 | 31195 ft | 467 kts | 191° |
| 2026-03-27 12:24 | 46.93153 | 11.83304 | 31420 ft | 469 kts | 192° |
| 2026-03-27 12:25 | 46.89971 | 11.82199 | 31682 ft | 471 kts | 192° |
| 2026-03-27 12:25 | 46.86776 | 11.81084 | 31974 ft | 472 kts | 192° |
| 2026-03-27 12:25 | 46.83573 | 11.79994 | 32203 ft | 474 kts | 191° |
| 2026-03-27 12:25 | 46.80355 | 11.78938 | 32472 ft | 475 kts | 191° |
| 2026-03-27 12:26 | 46.77118 | 11.77914 | 32745 ft | 477 kts | 190° |
| 2026-03-27 12:26 | 46.73870 | 11.76911 | 33001 ft | 478 kts | 190° |
| 2026-03-27 12:26 | 46.70609 | 11.75912 | 33286 ft | 479 kts | 190° |
| 2026-03-27 12:26 | 46.67390 | 11.74892 | 33536 ft | 481 kts | 193° |
| 2026-03-27 12:27 | 46.64217 | 11.73303 | 33797 ft | 484 kts | 204° |
| 2026-03-27 12:27 | 46.61250 | 11.70979 | 34036 ft | 485 kts | 214° |
| 2026-03-27 12:27 | 46.58574 | 11.67999 | 34270 ft | 485 kts | 224° |
| 2026-03-27 12:27 | 46.56255 | 11.64453 | 34510 ft | 484 kts | 233° |
| 2026-03-27 12:28 | 46.54157 | 11.60629 | 34759 ft | 483 kts | 233° |
| 2026-03-27 12:28 | 46.52056 | 11.56824 | 35026 ft | 483 kts | 233° |
| 2026-03-27 12:28 | 46.49947 | 11.53030 | 35322 ft | 482 kts | 233° |
| 2026-03-27 12:28 | 46.47838 | 11.49249 | 35580 ft | 482 kts | 233° |
| 2026-03-27 12:29 | 46.45724 | 11.45469 | 35837 ft | 482 kts | 233° |
| 2026-03-27 12:29 | 46.43614 | 11.41699 | 36095 ft | 482 kts | 233° |
| 2026-03-27 12:29 | 46.41505 | 11.37930 | 36352 ft | 481 kts | 233° |
| 2026-03-27 12:29 | 46.39399 | 11.34166 | 36496 ft | 480 kts | 233° |
| 2026-03-27 12:30 | 46.37298 | 11.30405 | 36740 ft | 480 kts | 233° |
| 2026-03-27 12:30 | 46.33092 | 11.22885 | 36837 ft | 480 kts | 233° |
| 2026-03-27 12:31 | 46.28896 | 11.15402 | 36836 ft | 479 kts | 233° |
| 2026-03-27 12:31 | 46.24699 | 11.07938 | 36839 ft | 478 kts | 233° |
| 2026-03-27 12:32 | 46.20490 | 11.00500 | 36836 ft | 478 kts | 233° |
| 2026-03-27 12:32 | 46.16276 | 10.93081 | 36818 ft | 478 kts | 233° |
| 2026-03-27 12:33 | 46.12061 | 10.85671 | 36797 ft | 478 kts | 233° |
| 2026-03-27 12:33 | 46.07854 | 10.78273 | 36780 ft | 477 kts | 233° |
| 2026-03-27 12:34 | 46.03639 | 10.70882 | 36748 ft | 478 kts | 233° |
| 2026-03-27 12:34 | 45.99403 | 10.63492 | 36764 ft | 479 kts | 233° |
| 2026-03-27 12:35 | 45.95162 | 10.56100 | 36766 ft | 480 kts | 233° |
| 2026-03-27 12:35 | 45.90910 | 10.48706 | 36773 ft | 480 kts | 233° |
| 2026-03-27 12:36 | 45.86646 | 10.41324 | 36793 ft | 481 kts | 233° |
| 2026-03-27 12:36 | 45.82371 | 10.33943 | 36799 ft | 481 kts | 233° |
| 2026-03-27 12:37 | 45.78095 | 10.26570 | 36820 ft | 481 kts | 233° |
| 2026-03-27 12:37 | 45.73808 | 10.19191 | 36783 ft | 482 kts | 233° |
| 2026-03-27 12:38 | 45.69505 | 10.11826 | 36827 ft | 483 kts | 233° |
| 2026-03-27 12:38 | 45.65191 | 10.04450 | 36836 ft | 484 kts | 233° |
| 2026-03-27 12:39 | 45.60874 | 9.97074 | 36852 ft | 484 kts | 233° |
| 2026-03-27 12:39 | 45.56547 | 9.89713 | 36861 ft | 484 kts | 233° |
| 2026-03-27 12:40 | 45.52218 | 9.82360 | 36866 ft | 484 kts | 233° |
| 2026-03-27 12:40 | 45.47880 | 9.75025 | 36674 ft | 484 kts | 233° |
| 2026-03-27 12:41 | 45.43529 | 9.67683 | 36663 ft | 485 kts | 233° |
| 2026-03-27 12:41 | 45.39179 | 9.60355 | 36678 ft | 485 kts | 233° |
| 2026-03-27 12:42 | 45.34814 | 9.53021 | 36723 ft | 486 kts | 233° |
| 2026-03-27 12:42 | 45.30438 | 9.45699 | 36769 ft | 486 kts | 233° |
| 2026-03-27 12:43 | 45.26055 | 9.38385 | 36831 ft | 486 kts | 233° |
| 2026-03-27 12:43 | 45.21669 | 9.31086 | 36894 ft | 486 kts | 233° |
| 2026-03-27 12:44 | 45.17278 | 9.23790 | 36865 ft | 487 kts | 233° |
| 2026-03-27 12:44 | 45.12878 | 9.16497 | 36871 ft | 487 kts | 233° |
| 2026-03-27 12:45 | 45.08464 | 9.09201 | 36878 ft | 488 kts | 233° |
| 2026-03-27 12:45 | 45.04050 | 9.01911 | 36884 ft | 488 kts | 233° |
| 2026-03-27 12:46 | 44.99622 | 8.94639 | 36896 ft | 488 kts | 233° |
| 2026-03-27 12:46 | 44.95190 | 8.87379 | 36902 ft | 488 kts | 233° |
| 2026-03-27 12:47 | 44.90753 | 8.80127 | 36906 ft | 488 kts | 233° |
| 2026-03-27 12:47 | 44.86307 | 8.72872 | 36870 ft | 489 kts | 233° |
| 2026-03-27 12:48 | 44.81884 | 8.65656 | 36889 ft | 490 kts | 233° |
| 2026-03-27 12:48 | 44.77398 | 8.58353 | 36899 ft | 490 kts | 233° |
| 2026-03-27 12:49 | 44.72918 | 8.51117 | 36906 ft | 490 kts | 233° |
| 2026-03-27 12:49 | 44.68436 | 8.43890 | 36912 ft | 491 kts | 233° |
| 2026-03-27 12:50 | 44.63980 | 8.36711 | 36913 ft | 491 kts | 233° |
| 2026-03-27 12:50 | 44.59491 | 8.29500 | 36891 ft | 491 kts | 233° |
| 2026-03-27 12:51 | 44.54993 | 8.22296 | 36891 ft | 491 kts | 233° |
| 2026-03-27 12:51 | 44.50492 | 8.15094 | 36895 ft | 491 kts | 233° |
| 2026-03-27 12:52 | 44.45983 | 8.07900 | 36899 ft | 492 kts | 233° |
| 2026-03-27 12:52 | 44.41462 | 8.00716 | 36904 ft | 492 kts | 233° |
| 2026-03-27 12:53 | 44.36937 | 7.93541 | 36872 ft | 492 kts | 233° |
| 2026-03-27 12:53 | 44.32399 | 7.86367 | 36884 ft | 493 kts | 233° |
| 2026-03-27 12:54 | 44.27851 | 7.79199 | 36884 ft | 494 kts | 232° |
| 2026-03-27 12:54 | 44.20185 | 7.69429 | 36895 ft | 499 kts | 225° |
| 2026-03-27 12:55 | 44.14991 | 7.63011 | 36905 ft | 497 kts | 229° |
| 2026-03-27 12:55 | 44.11169 | 7.57123 | 36867 ft | 493 kts | 234° |
| 2026-03-27 12:56 | 44.06667 | 7.49914 | 36889 ft | 494 kts | 234° |
| 2026-03-27 12:56 | 44.02165 | 7.42703 | 36879 ft | 494 kts | 234° |
| 2026-03-27 12:57 | 43.97653 | 7.35515 | 36883 ft | 494 kts | 234° |
| 2026-03-27 12:57 | 43.93122 | 7.28338 | 36899 ft | 494 kts | 234° |
| 2026-03-27 12:58 | 43.88608 | 7.21184 | 36895 ft | 492 kts | 234° |
| 2026-03-27 12:58 | 43.84095 | 7.14039 | 36894 ft | 492 kts | 234° |
| 2026-03-27 12:59 | 43.79579 | 7.06922 | 36895 ft | 492 kts | 234° |
| 2026-03-27 12:59 | 43.75052 | 6.99823 | 36894 ft | 491 kts | 234° |
| 2026-03-27 13:00 | 43.71293 | 6.92142 | 36885 ft | 475 kts | 252° |
| 2026-03-27 13:00 | 43.68802 | 6.83763 | 36821 ft | 471 kts | 256° |
| 2026-03-27 13:01 | 43.66331 | 6.75370 | 36834 ft | 472 kts | 255° |
| 2026-03-27 13:01 | 43.63837 | 6.66987 | 36842 ft | 472 kts | 255° |
| 2026-03-27 13:02 | 43.61340 | 6.58605 | 36858 ft | 472 kts | 256° |
| 2026-03-27 13:02 | 43.58848 | 6.50232 | 36888 ft | 472 kts | 256° |
| 2026-03-27 13:03 | 43.56355 | 6.41866 | 36856 ft | 471 kts | 256° |
| 2026-03-27 13:03 | 43.53871 | 6.33570 | 36882 ft | 471 kts | 256° |
| 2026-03-27 13:04 | 43.51365 | 6.25230 | 36890 ft | 471 kts | 255° |
| 2026-03-27 13:04 | 43.48843 | 6.16899 | 36894 ft | 471 kts | 255° |
| 2026-03-27 13:05 | 43.46317 | 6.08583 | 36845 ft | 471 kts | 255° |
| 2026-03-27 13:05 | 43.43802 | 6.00277 | 36871 ft | 470 kts | 256° |
| 2026-03-27 13:06 | 43.41280 | 5.91983 | 36898 ft | 470 kts | 255° |
| 2026-03-27 13:06 | 43.38748 | 5.83698 | 36914 ft | 470 kts | 255° |
| 2026-03-27 13:07 | 43.36208 | 5.75417 | 36928 ft | 470 kts | 255° |
| 2026-03-27 13:07 | 43.33663 | 5.67151 | 36873 ft | 470 kts | 255° |
| 2026-03-27 13:08 | 43.31115 | 5.58896 | 36921 ft | 469 kts | 255° |
| 2026-03-27 13:08 | 43.28565 | 5.50645 | 36953 ft | 470 kts | 255° |
| 2026-03-27 13:09 | 43.26001 | 5.42394 | 36968 ft | 469 kts | 255° |
| 2026-03-27 13:09 | 43.23436 | 5.34172 | 36971 ft | 469 kts | 255° |
| 2026-03-27 13:10 | 43.20866 | 5.25944 | 36960 ft | 470 kts | 255° |
| 2026-03-27 13:10 | 43.18283 | 5.17719 | 36980 ft | 470 kts | 255° |
| 2026-03-27 13:11 | 43.15698 | 5.09494 | 36989 ft | 470 kts | 255° |
| 2026-03-27 13:11 | 43.13109 | 5.01273 | 37010 ft | 470 kts | 255° |
| 2026-03-27 13:12 | 43.10510 | 4.93068 | 36967 ft | 469 kts | 255° |
| 2026-03-27 13:12 | 43.07905 | 4.84888 | 37023 ft | 468 kts | 255° |
| 2026-03-27 13:13 | 43.04651 | 4.77063 | 37035 ft | 485 kts | 238° |
| 2026-03-27 13:13 | 42.99777 | 4.70603 | 37046 ft | 495 kts | 227° |
| 2026-03-27 13:14 | 42.94616 | 4.64384 | 37048 ft | 495 kts | 227° |
| 2026-03-27 13:14 | 42.89454 | 4.58170 | 37050 ft | 495 kts | 227° |
| 2026-03-27 13:15 | 42.84291 | 4.51970 | 37061 ft | 494 kts | 227° |
| 2026-03-27 13:15 | 42.79142 | 4.45787 | 37079 ft | 493 kts | 227° |
| 2026-03-27 13:16 | 42.74000 | 4.39622 | 37090 ft | 492 kts | 227° |
| 2026-03-27 13:16 | 42.68863 | 4.33482 | 37081 ft | 491 kts | 227° |
| 2026-03-27 13:17 | 42.63728 | 4.27365 | 37079 ft | 491 kts | 227° |
| 2026-03-27 13:17 | 42.58591 | 4.21259 | 37080 ft | 490 kts | 227° |
| 2026-03-27 13:18 | 42.53461 | 4.15174 | 37048 ft | 489 kts | 227° |
| 2026-03-27 13:18 | 42.48336 | 4.09107 | 37082 ft | 488 kts | 227° |
| 2026-03-27 13:19 | 42.43220 | 4.03070 | 37094 ft | 488 kts | 227° |
| 2026-03-27 13:19 | 42.38109 | 3.97049 | 37087 ft | 487 kts | 227° |
| 2026-03-27 13:20 | 42.32999 | 3.91041 | 37088 ft | 486 kts | 227° |
| 2026-03-27 13:20 | 42.27899 | 3.85049 | 37093 ft | 485 kts | 228° |
| 2026-03-27 13:21 | 42.23603 | 3.78272 | 37048 ft | 470 kts | 242° |
| 2026-03-27 13:21 | 42.19826 | 3.71074 | 37063 ft | 470 kts | 242° |
| 2026-03-27 13:22 | 42.16041 | 3.63901 | 37069 ft | 469 kts | 242° |
| 2026-03-27 13:22 | 42.12279 | 3.56787 | 37072 ft | 469 kts | 242° |
| 2026-03-27 13:23 | 42.08486 | 3.49637 | 37065 ft | 469 kts | 242° |
| 2026-03-27 13:23 | 42.04687 | 3.42498 | 37062 ft | 469 kts | 242° |
| 2026-03-27 13:24 | 42.00889 | 3.35367 | 37055 ft | 469 kts | 242° |
| 2026-03-27 13:24 | 41.97081 | 3.28246 | 37048 ft | 469 kts | 241° |
| 2026-03-27 13:25 | 41.93271 | 3.21131 | 37053 ft | 469 kts | 241° |
| 2026-03-27 13:25 | 41.89468 | 3.14026 | 37049 ft | 468 kts | 241° |
| 2026-03-27 13:26 | 41.85665 | 3.06937 | 37050 ft | 468 kts | 241° |
| 2026-03-27 13:26 | 41.81865 | 2.99892 | 37030 ft | 464 kts | 241° |
| 2026-03-27 13:27 | 41.78090 | 2.92909 | 37049 ft | 462 kts | 241° |
| 2026-03-27 13:27 | 41.74315 | 2.85958 | 37041 ft | 461 kts | 241° |
| 2026-03-27 13:28 | 41.70547 | 2.79031 | 37043 ft | 460 kts | 241° |
| 2026-03-27 13:28 | 41.66772 | 2.72139 | 37049 ft | 459 kts | 240° |
| 2026-03-27 13:29 | 41.62853 | 2.65382 | 37009 ft | 460 kts | 238° |
| 2026-03-27 13:29 | 41.58891 | 2.58703 | 37044 ft | 458 kts | 238° |
| 2026-03-27 13:30 | 41.54969 | 2.52022 | 37057 ft | 456 kts | 239° |
| 2026-03-27 13:30 | 41.51071 | 2.45340 | 37060 ft | 456 kts | 239° |
| 2026-03-27 13:31 | 41.47170 | 2.38676 | 37065 ft | 456 kts | 239° |
| 2026-03-27 13:31 | 41.43261 | 2.32024 | 37063 ft | 456 kts | 239° |
| 2026-03-27 13:32 | 41.39341 | 2.25382 | 37038 ft | 457 kts | 239° |
| 2026-03-27 13:32 | 41.35409 | 2.18721 | 37028 ft | 458 kts | 239° |
| 2026-03-27 13:33 | 41.31837 | 2.11793 | 37030 ft | 448 kts | 251° |
| 2026-03-27 13:33 | 41.29946 | 2.04085 | 37028 ft | 432 kts | 269° |
| 2026-03-27 13:34 | 41.29062 | 1.96235 | 37036 ft | 434 kts | 269° |
| 2026-03-27 13:34 | 41.28137 | 1.88292 | 37020 ft | 435 kts | 269° |
| 2026-03-27 13:35 | 41.27204 | 1.80319 | 37011 ft | 437 kts | 269° |
| 2026-03-27 13:35 | 41.26268 | 1.72316 | 37007 ft | 439 kts | 268° |
| 2026-03-27 13:36 | 41.25325 | 1.64291 | 37019 ft | 440 kts | 268° |
| 2026-03-27 13:36 | 41.24377 | 1.56251 | 37030 ft | 441 kts | 268° |
| 2026-03-27 13:37 | 41.23421 | 1.48202 | 37012 ft | 442 kts | 268° |
| 2026-03-27 13:37 | 41.22454 | 1.40142 | 37014 ft | 443 kts | 268° |
| 2026-03-27 13:38 | 41.21478 | 1.32064 | 37010 ft | 443 kts | 268° |
| 2026-03-27 13:38 | 41.20505 | 1.23979 | 37012 ft | 443 kts | 268° |
| 2026-03-27 13:39 | 41.19522 | 1.15892 | 37017 ft | 444 kts | 268° |
| 2026-03-27 13:39 | 41.18535 | 1.07807 | 37016 ft | 444 kts | 266° |
| 2026-03-27 13:40 | 41.17533 | 0.99708 | 37028 ft | 445 kts | 266° |
| 2026-03-27 13:40 | 41.16525 | 0.91613 | 37047 ft | 444 kts | 266° |
| 2026-03-27 13:41 | 41.15512 | 0.83524 | 37048 ft | 444 kts | 266° |
| 2026-03-27 13:41 | 41.14502 | 0.75435 | 37009 ft | 444 kts | 266° |
| 2026-03-27 13:42 | 41.13478 | 0.67371 | 37054 ft | 443 kts | 266° |
| 2026-03-27 13:42 | 41.12455 | 0.59333 | 37056 ft | 441 kts | 266° |
| 2026-03-27 13:43 | 41.11109 | 0.48667 | 37059 ft | 440 kts | 266° |
| 2026-03-27 13:44 | 41.10089 | 0.40676 | 37064 ft | 439 kts | 265° |
| 2026-03-27 13:44 | 41.09049 | 0.32700 | 37042 ft | 439 kts | 265° |
| 2026-03-27 13:45 | 41.08007 | 0.24736 | 37056 ft | 438 kts | 265° |
| 2026-03-27 13:45 | 41.06964 | 0.16780 | 37060 ft | 438 kts | 265° |
| 2026-03-27 13:46 | 41.05920 | 0.08831 | 37061 ft | 438 kts | 265° |
| 2026-03-27 13:46 | 41.04871 | 0.00891 | 37061 ft | 438 kts | 265° |
| 2026-03-27 13:47 | 41.03809 | -0.07045 | 37052 ft | 437 kts | 265° |
| 2026-03-27 13:47 | 41.02748 | -0.14970 | 37056 ft | 437 kts | 265° |
| 2026-03-27 13:48 | 41.01684 | -0.22886 | 37058 ft | 437 kts | 265° |
| 2026-03-27 13:48 | 41.00333 | -0.30742 | 37063 ft | 442 kts | 255° |
| 2026-03-27 13:49 | 40.98252 | -0.38406 | 37062 ft | 442 kts | 255° |
| 2026-03-27 13:49 | 40.96176 | -0.46071 | 37071 ft | 442 kts | 255° |
| 2026-03-27 13:50 | 40.94096 | -0.53732 | 37070 ft | 443 kts | 255° |
| 2026-03-27 13:50 | 40.92029 | -0.61339 | 37075 ft | 443 kts | 255° |
| 2026-03-27 13:51 | 40.89921 | -0.69041 | 37061 ft | 443 kts | 255° |
| 2026-03-27 13:51 | 40.87814 | -0.76695 | 37039 ft | 443 kts | 255° |
| 2026-03-27 13:52 | 40.85723 | -0.84300 | 37056 ft | 443 kts | 254° |
| 2026-03-27 13:52 | 40.83619 | -0.91943 | 37079 ft | 443 kts | 254° |
| 2026-03-27 13:53 | 40.81504 | -0.99585 | 37088 ft | 443 kts | 254° |
| 2026-03-27 13:53 | 40.79377 | -1.07215 | 37085 ft | 443 kts | 254° |
| 2026-03-27 13:54 | 40.77251 | -1.14836 | 37076 ft | 443 kts | 254° |
| 2026-03-27 13:54 | 40.75121 | -1.22457 | 37083 ft | 443 kts | 254° |
| 2026-03-27 13:55 | 40.72983 | -1.30064 | 37082 ft | 442 kts | 254° |
| 2026-03-27 13:55 | 40.70843 | -1.37663 | 37083 ft | 442 kts | 254° |
| 2026-03-27 13:56 | 40.68703 | -1.45259 | 37084 ft | 442 kts | 254° |
| 2026-03-27 13:56 | 40.66563 | -1.52851 | 37063 ft | 442 kts | 254° |
| 2026-03-27 13:57 | 40.64414 | -1.60442 | 37069 ft | 442 kts | 253° |
| 2026-03-27 13:57 | 40.62256 | -1.68019 | 37073 ft | 442 kts | 253° |
| 2026-03-27 13:58 | 40.60097 | -1.75597 | 37080 ft | 442 kts | 253° |
| 2026-03-27 13:58 | 40.57929 | -1.83169 | 37078 ft | 442 kts | 253° |
| 2026-03-27 13:59 | 40.55751 | -1.90736 | 37075 ft | 442 kts | 253° |
| 2026-03-27 13:59 | 40.53575 | -1.98301 | 37062 ft | 442 kts | 253° |
| 2026-03-27 14:00 | 40.51399 | -2.05862 | 37070 ft | 442 kts | 253° |
| 2026-03-27 14:00 | 40.49210 | -2.13413 | 37068 ft | 442 kts | 253° |
| 2026-03-27 14:01 | 40.47017 | -2.20954 | 37067 ft | 442 kts | 253° |
| 2026-03-27 14:01 | 40.44836 | -2.28436 | 37052 ft | 442 kts | 252° |
| 2026-03-27 14:02 | 40.42638 | -2.35965 | 37045 ft | 442 kts | 252° |
| 2026-03-27 14:02 | 40.40433 | -2.43486 | 37048 ft | 442 kts | 252° |
| 2026-03-27 14:03 | 40.38214 | -2.51006 | 37054 ft | 442 kts | 252° |
| 2026-03-27 14:03 | 40.36290 | -2.58626 | 37054 ft | 439 kts | 258° |
| 2026-03-27 14:04 | 40.34637 | -2.66332 | 37057 ft | 439 kts | 257° |
| 2026-03-27 14:04 | 40.32968 | -2.74033 | 37049 ft | 439 kts | 257° |
| 2026-03-27 14:05 | 40.31288 | -2.81730 | 37053 ft | 439 kts | 257° |
| 2026-03-27 14:05 | 40.29602 | -2.89426 | 37059 ft | 440 kts | 257° |
| 2026-03-27 14:06 | 40.27914 | -2.97128 | 37062 ft | 440 kts | 257° |
| 2026-03-27 14:06 | 40.26228 | -3.04824 | 37068 ft | 440 kts | 257° |
| 2026-03-27 14:07 | 40.24527 | -3.12522 | 37059 ft | 440 kts | 257° |
| 2026-03-27 14:07 | 40.22815 | -3.20217 | 37066 ft | 440 kts | 257° |
| 2026-03-27 14:08 | 40.21099 | -3.27910 | 37075 ft | 440 kts | 257° |
| 2026-03-27 14:08 | 40.19385 | -3.35597 | 37068 ft | 440 kts | 257° |
| 2026-03-27 14:09 | 40.17675 | -3.43232 | 37068 ft | 441 kts | 257° |
| 2026-03-27 14:09 | 40.15946 | -3.50920 | 37061 ft | 441 kts | 257° |
| 2026-03-27 14:10 | 40.14211 | -3.58612 | 37065 ft | 441 kts | 257° |
| 2026-03-27 14:10 | 40.12413 | -3.66283 | 37069 ft | 443 kts | 251° |
| 2026-03-27 14:11 | 40.09210 | -3.73193 | 37068 ft | 450 kts | 230° |
| 2026-03-27 14:11 | 40.06941 | -3.76019 | 37059 ft | 453 kts | 219° |
| 2026-03-27 14:11 | 40.04358 | -3.78383 | 37056 ft | 454 kts | 216° |
| 2026-03-27 14:12 | 39.99112 | -3.82983 | 37046 ft | 454 kts | 216° |
| 2026-03-27 14:12 | 39.93867 | -3.87595 | 37050 ft | 455 kts | 215° |
| 2026-03-27 14:13 | 39.88614 | -3.92215 | 37060 ft | 456 kts | 215° |
| 2026-03-27 14:13 | 39.83349 | -3.96822 | 37066 ft | 456 kts | 215° |
| 2026-03-27 14:14 | 39.78077 | -4.01413 | 37065 ft | 456 kts | 215° |
| 2026-03-27 14:14 | 39.72802 | -4.06003 | 37069 ft | 456 kts | 215° |
| 2026-03-27 14:15 | 39.67531 | -4.10592 | 37068 ft | 456 kts | 215° |
| 2026-03-27 14:15 | 39.62259 | -4.15169 | 37075 ft | 456 kts | 215° |
| 2026-03-27 14:16 | 39.56982 | -4.19744 | 37080 ft | 456 kts | 215° |
| 2026-03-27 14:16 | 39.51734 | -4.24285 | 37075 ft | 457 kts | 215° |
| 2026-03-27 14:17 | 39.46448 | -4.28844 | 37069 ft | 456 kts | 214° |
| 2026-03-27 14:17 | 39.41162 | -4.33392 | 37079 ft | 456 kts | 214° |
| 2026-03-27 14:18 | 39.35877 | -4.37949 | 37077 ft | 456 kts | 214° |
| 2026-03-27 14:18 | 39.30594 | -4.42491 | 37069 ft | 456 kts | 214° |
| 2026-03-27 14:19 | 39.25304 | -4.47021 | 37076 ft | 456 kts | 214° |
| 2026-03-27 14:19 | 39.20018 | -4.51540 | 37064 ft | 456 kts | 214° |
| 2026-03-27 14:20 | 39.14733 | -4.56050 | 37067 ft | 455 kts | 214° |
| 2026-03-27 14:20 | 39.09451 | -4.60552 | 37048 ft | 455 kts | 214° |
| 2026-03-27 14:21 | 39.04167 | -4.65046 | 37052 ft | 455 kts | 213° |
| 2026-03-27 14:21 | 38.98870 | -4.69531 | 37036 ft | 457 kts | 213° |
| 2026-03-27 14:22 | 38.93554 | -4.74044 | 37029 ft | 459 kts | 214° |
| 2026-03-27 14:22 | 38.88216 | -4.78575 | 37029 ft | 461 kts | 213° |
| 2026-03-27 14:23 | 38.82861 | -4.83096 | 37027 ft | 461 kts | 213° |
| 2026-03-27 14:23 | 38.77492 | -4.87612 | 37038 ft | 462 kts | 213° |
| 2026-03-27 14:24 | 38.72112 | -4.92133 | 37034 ft | 463 kts | 213° |
| 2026-03-27 14:24 | 38.66723 | -4.96659 | 37020 ft | 464 kts | 213° |
| 2026-03-27 14:25 | 38.61319 | -5.01189 | 37028 ft | 465 kts | 213° |
| 2026-03-27 14:25 | 38.55946 | -5.05681 | 37030 ft | 465 kts | 213° |
| 2026-03-27 14:26 | 38.50529 | -5.10299 | 37038 ft | 465 kts | 219° |
| 2026-03-27 14:26 | 38.45666 | -5.15647 | 37042 ft | 465 kts | 221° |
| 2026-03-27 14:27 | 38.40781 | -5.21043 | 37047 ft | 464 kts | 221° |
| 2026-03-27 14:27 | 38.35896 | -5.26427 | 36983 ft | 464 kts | 221° |
| 2026-03-27 14:27 | 38.33467 | -5.29101 | 36158 ft | 459 kts | 221° |
| 2026-03-27 14:28 | 38.31062 | -5.31746 | 35308 ft | 453 kts | 221° |
| 2026-03-27 14:28 | 38.28689 | -5.34351 | 34509 ft | 447 kts | 221° |
| 2026-03-27 14:28 | 38.26348 | -5.36922 | 33704 ft | 441 kts | 222° |
| 2026-03-27 14:28 | 38.24332 | -5.39794 | 32870 ft | 432 kts | 240° |
| 2026-03-27 14:29 | 38.23007 | -5.43167 | 32031 ft | 423 kts | 249° |
| 2026-03-27 14:29 | 38.21881 | -5.46600 | 31205 ft | 418 kts | 250° |
| 2026-03-27 14:29 | 38.20665 | -5.49940 | 30427 ft | 414 kts | 246° |
| 2026-03-27 14:29 | 38.19394 | -5.53203 | 29581 ft | 409 kts | 246° |
| 2026-03-27 14:30 | 38.18132 | -5.56416 | 28719 ft | 404 kts | 246° |
| 2026-03-27 14:30 | 38.16886 | -5.59587 | 27890 ft | 398 kts | 246° |
| 2026-03-27 14:30 | 38.15656 | -5.62715 | 27092 ft | 393 kts | 246° |
| 2026-03-27 14:30 | 38.14442 | -5.65803 | 26323 ft | 388 kts | 246° |
| 2026-03-27 14:31 | 38.13243 | -5.68854 | 25579 ft | 383 kts | 246° |
| 2026-03-27 14:31 | 38.12059 | -5.71864 | 24847 ft | 379 kts | 246° |
| 2026-03-27 14:31 | 38.10888 | -5.74836 | 24154 ft | 374 kts | 246° |
| 2026-03-27 14:31 | 38.09731 | -5.77767 | 23447 ft | 369 kts | 246° |
| 2026-03-27 14:32 | 38.08956 | -5.79729 | 22909 ft | 366 kts | 246° |
| 2026-03-27 14:32 | 38.07823 | -5.82599 | 22149 ft | 362 kts | 246° |
| 2026-03-27 14:32 | 38.06684 | -5.85424 | 21413 ft | 357 kts | 245° |
| 2026-03-27 14:32 | 38.05550 | -5.88199 | 20397 ft | 362 kts | 245° |
| 2026-03-27 14:33 | 38.04391 | -5.91044 | 19477 ft | 363 kts | 245° |
| 2026-03-27 14:33 | 38.03235 | -5.93906 | 18536 ft | 366 kts | 245° |
| 2026-03-27 14:33 | 38.02087 | -5.96794 | 17531 ft | 367 kts | 245° |
| 2026-03-27 14:33 | 38.00947 | -5.99702 | 16496 ft | 368 kts | 248° |
| 2026-03-27 14:34 | 38.00202 | -6.02763 | 15634 ft | 361 kts | 259° |
| 2026-03-27 14:34 | 37.99649 | -6.05852 | 14793 ft | 357 kts | 260° |
| 2026-03-27 14:34 | 37.99110 | -6.08909 | 14018 ft | 353 kts | 260° |
| 2026-03-27 14:34 | 37.98572 | -6.11930 | 13190 ft | 350 kts | 260° |
| 2026-03-27 14:35 | 37.98035 | -6.14913 | 12334 ft | 345 kts | 260° |
| 2026-03-27 14:35 | 37.97501 | -6.17858 | 11590 ft | 339 kts | 260° |
| 2026-03-27 14:35 | 37.96986 | -6.20670 | 11405 ft | 317 kts | 260° |
| 2026-03-27 14:35 | 37.96492 | -6.23339 | 10922 ft | 308 kts | 260° |
| 2026-03-27 14:36 | 37.95249 | -6.28447 | 9716 ft | 305 kts | 238° |
| 2026-03-27 14:36 | 37.93745 | -6.30326 | 9171 ft | 307 kts | 210° |
| 2026-03-27 14:36 | 37.91754 | -6.31208 | 8795 ft | 303 kts | 185° |
| 2026-03-27 14:37 | 37.89652 | -6.31406 | 8366 ft | 303 kts | 180° |
| 2026-03-27 14:37 | 37.87559 | -6.31521 | 7991 ft | 300 kts | 180° |
| 2026-03-27 14:37 | 37.85480 | -6.31637 | 7629 ft | 297 kts | 180° |
| 2026-03-27 14:37 | 37.83422 | -6.31767 | 7268 ft | 295 kts | 180° |
| 2026-03-27 14:38 | 37.81382 | -6.31902 | 6935 ft | 292 kts | 180° |
| 2026-03-27 14:38 | 37.79361 | -6.32043 | 6566 ft | 290 kts | 180° |
| 2026-03-27 14:38 | 37.77350 | -6.32192 | 6184 ft | 289 kts | 180° |
| 2026-03-27 14:38 | 37.75350 | -6.32333 | 5810 ft | 286 kts | 180° |
| 2026-03-27 14:39 | 37.73399 | -6.32456 | 5451 ft | 283 kts | 180° |
| 2026-03-27 14:39 | 37.71426 | -6.32371 | 5063 ft | 277 kts | 171° |
| 2026-03-27 14:39 | 37.69524 | -6.32073 | 4682 ft | 275 kts | 170° |
| 2026-03-27 14:39 | 37.67657 | -6.31757 | 4286 ft | 274 kts | 170° |
| 2026-03-27 14:40 | 37.65753 | -6.31414 | 3974 ft | 272 kts | 170° |
| 2026-03-27 14:40 | 37.63913 | -6.31083 | 3725 ft | 270 kts | 170° |
| 2026-03-27 14:40 | 37.62060 | -6.30739 | 3526 ft | 269 kts | 169° |
| 2026-03-27 14:40 | 37.60200 | -6.30398 | 3325 ft | 270 kts | 169° |
| 2026-03-27 14:41 | 37.58426 | -6.29722 | 3119 ft | 265 kts | 153° |
| 2026-03-27 14:41 | 37.56788 | -6.28676 | 2967 ft | 264 kts | 150° |
| 2026-03-27 14:41 | 37.55175 | -6.27583 | 2839 ft | 262 kts | 150° |
| 2026-03-27 14:41 | 37.53577 | -6.26486 | 2733 ft | 261 kts | 149° |
| 2026-03-27 14:42 | 37.51972 | -6.25401 | 2585 ft | 261 kts | 150° |
| 2026-03-27 14:42 | 37.50380 | -6.24304 | 2468 ft | 260 kts | 150° |
| 2026-03-27 14:42 | 37.48793 | -6.23212 | 2336 ft | 260 kts | 149° |
| 2026-03-27 14:42 | 37.47219 | -6.22146 | 2208 ft | 251 kts | 150° |
| 2026-03-27 14:43 | 37.45759 | -6.21034 | 2093 ft | 239 kts | 137° |
| 2026-03-27 14:43 | 37.44611 | -6.19614 | 1994 ft | 225 kts | 130° |
| 2026-03-27 14:43 | 37.43572 | -6.18238 | 2002 ft | 211 kts | 130° |
| 2026-03-27 14:43 | 37.42586 | -6.16909 | 2003 ft | 206 kts | 128° |
| 2026-03-27 14:44 | 37.41877 | -6.15383 | 2006 ft | 201 kts | 106° |
| 2026-03-27 14:44 | 37.41676 | -6.13665 | 2011 ft | 198 kts | 88° |
| 2026-03-27 14:44 | 37.41688 | -6.11923 | 2010 ft | 200 kts | 88° |
| 2026-03-27 14:44 | 37.41699 | -6.10183 | 2007 ft | 198 kts | 89° |
| 2026-03-27 14:45 | 37.41708 | -6.08499 | 2003 ft | 188 kts | 88° |
| 2026-03-27 14:45 | 37.41716 | -6.06884 | 2033 ft | 180 kts | 87° |
| 2026-03-27 14:45 | 37.41723 | -6.05390 | 2000 ft | 162 kts | 86° |
| 2026-03-27 14:45 | 37.41728 | -6.04059 | 2003 ft | 141 kts | 86° |
| 2026-03-27 14:46 | 37.41735 | -6.02850 | 1867 ft | 136 kts | 85° |
| 2026-03-27 14:46 | 37.41741 | -6.01684 | 1725 ft | 133 kts | 86° |
| 2026-03-27 14:46 | 37.41747 | -6.00521 | 1550 ft | 131 kts | 87° |
| 2026-03-27 14:46 | 37.41752 | -5.99382 | 1376 ft | 129 kts | 85° |
| 2026-03-27 14:47 | 37.41757 | -5.98259 | 1213 ft | 127 kts | 86° |
| 2026-03-27 14:47 | 37.41762 | -5.97144 | 1044 ft | 128 kts | 86° |
| 2026-03-27 14:47 | 37.41768 | -5.96022 | 877 ft | 128 kts | 85° |
| 2026-03-27 14:47 | 37.41772 | -5.94906 | 733 ft | 130 kts | 86° |
| 2026-03-27 14:48 | 37.41784 | -5.93744 | 599 ft | 134 kts | 87° |
| 2026-03-27 14:48 | 37.41784 | -5.92572 | 367 ft | 136 kts | 87° |
| 2026-03-27 14:48 | 37.41790 | -5.91380 | 183 ft | 135 kts | 88° |
| 2026-03-27 14:48 | 37.41783 | -5.90264 | 98 ft | 113 kts | 89° |
| 2026-03-27 14:49 | 37.41799 | -5.89429 | 100 ft | 66 kts | 90° |
| 2026-03-27 14:49 | 37.41813 | -5.89252 | 100 ft | 7 kts | 28° |
| 2026-03-27 14:49 | 37.41867 | -5.89274 | 100 ft | 11 kts | 332° |
| 2026-03-27 14:49 | 37.41943 | -5.89329 | 100 ft | 13 kts | 329° |
| 2026-03-27 14:50 | 37.42018 | -5.89401 | 99 ft | 14 kts | 314° |
| 2026-03-27 14:50 | 37.42086 | -5.89489 | 98 ft | 14 kts | 314° |
| 2026-03-27 14:50 | 37.42154 | -5.89579 | 96 ft | 15 kts | 314° |
| 2026-03-27 14:51 | 37.42264 | -5.89743 | 95 ft | 9 kts | 269° |
| 2026-03-27 14:51 | 37.42230 | -5.89802 | 94 ft | 7 kts | 237° |
| 2026-03-27 14:51 | 37.42251 | -5.89849 | 94 ft | 6 kts | 314° |
| 2026-03-27 14:51 | 37.42277 | -5.89881 | 96 ft | 3 kts | 315° |
| 2026-03-27 14:52 | 37.42279 | -5.89885 | 94 ft | 0 kts | 315° |